Atwood, KS

11:05 PM CDT on March 30, 2015 (GMT -0500)
Sunflower Aero, Inc | | Change Station
CLOSE
Current Station
Personal Weather Station
Location: Atwood, KS
Elevation: 2956 ft
Nearby Weather Stations

Elev 2956 ft 39.84 °N, 101.05 °W | Updated 6 seconds ago

Clear
Clear
57.2 °F
Feels Like 57.2 °F
N
9.0
Wind Variable Wind from NE
Gusts 12.0 mph

Today
High -- | Low -- °F
--% Chance of Precip.
Yesterday
High -- | Low -- °F
Precip. -- in
7:31 AM 8:06 PM
Waxing Gibbous, 84% visible
Pressure 30.04 in
Visibility 10.0 miles
Clouds Clear
Dew Point 24 °F
Humidity 27%
Rainfall in
Snow Depth Not available.
UV 0 out of 12
Pollen 11.80 out of 12
Air Quality Not available.
Flu Activity Not available.
METAR KCBK 310355Z AUTO 36006KT 10SM CLR 13/M03 A3004 RMK AO2

More Conditions Fewer Conditions

Pressure 30.04 in
Visibility 10.0 miles
Clouds Clear
Dew Point 24 °F
Humidity 27%
Rainfall in
Snow Depth Not available.
UV 0 out of 12
Pollen 11.80 out of 12
Air Quality Not available.
Flu Activity Not available.
METAR KCBK 310355Z AUTO 36006KT 10SM CLR 13/M03 A3004 RMK AO2

More Conditions Fewer Conditions

10-Day Weather Forecast

Almanac

Astronomy

Mar. 30, 2015 Rise Set
Actual Time
Civil Twilight
Nautical Twilight
Astronomical Twilight
Moon
Length of Visible Light
Length of Day
Tomorrow will be .
, % of the Moon is Illuminated

Today's Extremes

State Highs State Lows

Community

WunderPhotos

Upload Photos

1,809,715 photos uploaded!

WunderBlogs® & News

Nearby

Air Quality

  Air Quality AQ Index Pollutant
Not available.

Snow Depth

Station Depth Elevation

Earthquake Activity

City Distance Mag. Time & Date
Minimum magnitude displayed is 2.5.

Coastal Water Temperatures

Place Temperature

Stations

Nearby Weather Stations

Station Location Temp. Windchill Dew Point Humidity Wind Precip. Elev Updated Type